Manzanita, California
Current Conditions -  °F | °C
As of 8:53 PM on Friday 24 Oct 2014 (Local Time) from KOVE Reporting Station
Clear Clear  
Wind Chill: 17°   Ceiling: Unl
Heat Index: 17°   Visibility: 10mi
Dew Point: 10°   Wind: 6mph
Humidity: 63%   Direction: 120°ESE
Pressure: 29.86"   Gusts: NA
Location:  39.3475°N, 121.759°W
Report Text: KOVE 250353Z AUTO 12005KT 10SM CLR 17/10 A2986 RMK AO2 SLP115 T01720100
Loading
Personal Weather Stations






























Interactive Weather Map
Tropical Storm Tracking
New forecast layout! Learn more

10-Day Weather Forecast

Advertisements
Track Severe Weather on mobile